sensor_id;sensor_type;location;lat;lon;timestamp;pressure;altitude;pressure_sealevel;temperature;humidity
49104;BME280;34915;52.926;11.116;2023-07-30T00:02:22;100625.72;;;16.34;77.53
49104;BME280;34915;52.926;11.116;2023-07-30T00:04:47;100622.59;;;16.32;77.20
49104;BME280;34915;52.926;11.116;2023-07-30T00:07:14;100626.47;;;16.38;76.27
49104;BME280;34915;52.926;11.116;2023-07-30T00:09:40;100618.94;;;16.38;76.05
49104;BME280;34915;52.926;11.116;2023-07-30T00:12:06;100623.22;;;16.43;77.06
49104;BME280;34915;52.926;11.116;2023-07-30T00:14:32;100629.97;;;16.42;77.31
49104;BME280;34915;52.926;11.116;2023-07-30T00:16:58;100620.91;;;16.38;76.83
49104;BME280;34915;52.926;11.116;2023-07-30T00:19:24;100630.06;;;16.35;76.58
49104;BME280;34915;52.926;11.116;2023-07-30T00:21:49;100618.50;;;16.40;77.22
49104;BME280;34915;52.926;11.116;2023-07-30T00:24:15;100612.13;;;16.43;76.99
49104;BME280;34915;52.926;11.116;2023-07-30T00:26:40;100614.06;;;16.46;77.27
49104;BME280;34915;52.926;11.116;2023-07-30T00:29:06;100618.41;;;16.47;76.83
49104;BME280;34915;52.926;11.116;2023-07-30T00:31:32;100617.13;;;16.52;77.06
49104;BME280;34915;52.926;11.116;2023-07-30T00:33:57;100620.25;;;16.54;76.94
49104;BME280;34915;52.926;11.116;2023-07-30T00:36:23;100620.69;;;16.52;77.31
49104;BME280;34915;52.926;11.116;2023-07-30T00:38:48;100611.47;;;16.59;76.78
49104;BME280;34915;52.926;11.116;2023-07-30T00:41:14;100611.03;;;16.60;76.58
49104;BME280;34915;52.926;11.116;2023-07-30T00:43:39;100600.69;;;16.64;77.06
49104;BME280;34915;52.926;11.116;2023-07-30T00:46:05;100594.31;;;16.67;77.10
49104;BME280;34915;52.926;11.116;2023-07-30T00:48:31;100610.94;;;16.67;77.10
49104;BME280;34915;52.926;11.116;2023-07-30T00:50:57;100600.59;;;16.71;77.05
49104;BME280;34915;52.926;11.116;2023-07-30T00:53:24;100600.59;;;16.71;76.61
49104;BME280;34915;52.926;11.116;2023-07-30T00:55:50;100603.44;;;16.64;76.88
49104;BME280;34915;52.926;11.116;2023-07-30T00:58:17;100600.28;;;16.66;76.46
49104;BME280;34915;52.926;11.116;2023-07-30T01:00:44;100600.22;;;16.69;77.01
49104;BME280;34915;52.926;11.116;2023-07-30T01:03:10;100591.22;;;16.62;76.28
49104;BME280;34915;52.926;11.116;2023-07-30T01:05:36;100600.75;;;16.61;76.75
49104;BME280;34915;52.926;11.116;2023-07-30T01:08:02;100598.53;;;16.52;76.13
49104;BME280;34915;52.926;11.116;2023-07-30T01:10:30;100606.59;;;16.43;76.54
49104;BME280;34915;52.926;11.116;2023-07-30T01:12:59;100601.84;;;16.43;77.24
49104;BME280;34915;52.926;11.116;2023-07-30T01:15:25;100601.41;;;16.45;77.07
49104;BME280;34915;52.926;11.116;2023-07-30T01:17:50;100596.72;;;16.42;76.38
49104;BME280;34915;52.926;11.116;2023-07-30T01:20:16;100595.63;;;16.36;76.21
49104;BME280;34915;52.926;11.116;2023-07-30T01:22:42;100601.16;;;16.36;76.15
49104;BME280;34915;52.926;11.116;2023-07-30T01:25:07;100597.25;;;16.33;76.63
49104;BME280;34915;52.926;11.116;2023-07-30T01:27:39;100605.16;;;16.35;76.85
49104;BME280;34915;52.926;11.116;2023-07-30T01:32:35;100603.69;;;16.27;76.85
49104;BME280;34915;52.926;11.116;2023-07-30T01:35:02;100609.22;;;16.27;76.34
49104;BME280;34915;52.926;11.116;2023-07-30T01:37:29;100601.81;;;16.20;77.28
49104;BME280;34915;52.926;11.116;2023-07-30T01:39:56;100602.50;;;16.28;76.79
49104;BME280;34915;52.926;11.116;2023-07-30T01:42:21;100605.75;;;16.23;76.53
49104;BME280;34915;52.926;11.116;2023-07-30T01:44:47;100606.59;;;16.20;76.56
49104;BME280;34915;52.926;11.116;2023-07-30T01:47:12;100609.72;;;16.22;76.57
49104;BME280;34915;52.926;11.116;2023-07-30T01:49:38;100605.41;;;16.17;76.88
49104;BME280;34915;52.926;11.116;2023-07-30T01:52:03;100606.66;;;16.12;77.01
49104;BME280;34915;52.926;11.116;2023-07-30T01:54:29;100595.22;;;16.10;76.62
49104;BME280;34915;52.926;11.116;2023-07-30T01:56:55;100611.00;;;16.13;76.56
49104;BME280;34915;52.926;11.116;2023-07-30T01:59:20;100615.03;;;16.09;76.97
49104;BME280;34915;52.926;11.116;2023-07-30T02:01:46;100609.97;;;16.04;77.06
49104;BME280;34915;52.926;11.116;2023-07-30T02:04:11;100607.19;;;16.04;77.17
49104;BME280;34915;52.926;11.116;2023-07-30T02:06:37;100604.38;;;16.07;76.39
49104;BME280;34915;52.926;11.116;2023-07-30T02:09:02;100610.38;;;16.02;76.52
49104;BME280;34915;52.926;11.116;2023-07-30T02:11:28;100612.38;;;16.02;77.11
49104;BME280;34915;52.926;11.116;2023-07-30T02:13:54;100612.00;;;16.00;76.50
49104;BME280;34915;52.926;11.116;2023-07-30T02:16:19;100617.00;;;16.08;76.94
49104;BME280;34915;52.926;11.116;2023-07-30T02:18:45;100614.19;;;16.12;76.74
49104;BME280;34915;52.926;11.116;2023-07-30T02:21:12;100616.44;;;16.21;76.85
49104;BME280;34915;52.926;11.116;2023-07-30T02:23:38;100610.56;;;16.15;76.86
49104;BME280;34915;52.926;11.116;2023-07-30T02:26:03;100615.63;;;16.24;76.48
49104;BME280;34915;52.926;11.116;2023-07-30T02:28:29;100617.53;;;16.27;77.20
49104;BME280;34915;52.926;11.116;2023-07-30T02:30:54;100614.28;;;16.32;76.60
49104;BME280;34915;52.926;11.116;2023-07-30T02:33:20;100607.78;;;16.42;76.99
49104;BME280;34915;52.926;11.116;2023-07-30T02:35:45;100613.69;;;16.44;77.17
49104;BME280;34915;52.926;11.116;2023-07-30T02:38:11;100612.50;;;16.45;76.83
49104;BME280;34915;52.926;11.116;2023-07-30T02:40:36;100612.06;;;16.47;76.70
49104;BME280;34915;52.926;11.116;2023-07-30T02:43:02;100626.34;;;16.45;77.40
49104;BME280;34915;52.926;11.116;2023-07-30T02:45:27;100618.50;;;16.40;76.93
49104;BME280;34915;52.926;11.116;2023-07-30T02:47:53;100618.94;;;16.38;77.48
49104;BME280;34915;52.926;11.116;2023-07-30T02:50:19;100620.56;;;16.36;77.19
49104;BME280;34915;52.926;11.116;2023-07-30T02:52:44;100619.34;;;16.37;76.97
49104;BME280;34915;52.926;11.116;2023-07-30T02:55:10;100601.09;;;16.39;77.33
49104;BME280;34915;52.926;11.116;2023-07-30T02:57:35;100617.38;;;16.37;76.82
49104;BME280;34915;52.926;11.116;2023-07-30T03:00:02;100612.91;;;16.43;76.67
49104;BME280;34915;52.926;11.116;2023-07-30T03:02:29;100612.13;;;16.43;77.10
49104;BME280;34915;52.926;11.116;2023-07-30T03:04:55;100621.59;;;16.45;77.00
49104;BME280;34915;52.926;11.116;2023-07-30T03:07:20;100622.78;;;16.44;76.70
49104;BME280;34915;52.926;11.116;2023-07-30T03:09:46;100623.03;;;16.54;76.33
49104;BME280;34915;52.926;11.116;2023-07-30T03:12:11;100619.13;;;16.51;76.24
49104;BME280;34915;52.926;11.116;2023-07-30T03:14:37;100634.53;;;16.52;76.68
49104;BME280;34915;52.926;11.116;2023-07-30T03:17:03;100622.19;;;16.57;76.46
49104;BME280;34915;52.926;11.116;2023-07-30T03:19:30;100621.03;;;16.54;76.41
49104;BME280;34915;52.926;11.116;2023-07-30T03:21:56;100617.00;;;16.59;76.50
49104;BME280;34915;52.926;11.116;2023-07-30T03:24:21;100621.41;;;16.56;76.55
49104;BME280;34915;52.926;11.116;2023-07-30T03:26:47;100618.22;;;16.58;76.06
49104;BME280;34915;52.926;11.116;2023-07-30T03:29:12;100619.84;;;16.55;76.24
49104;BME280;34915;52.926;11.116;2023-07-30T03:31:38;100619.53;;;16.50;75.25
49104;BME280;34915;52.926;11.116;2023-07-30T03:34:03;100618.44;;;16.43;76.45
49104;BME280;34915;52.926;11.116;2023-07-30T03:36:29;100619.72;;;16.39;76.98
49104;BME280;34915;52.926;11.116;2023-07-30T03:38:55;100620.56;;;16.36;76.31
49104;BME280;34915;52.926;11.116;2023-07-30T03:41:20;100634.47;;;16.32;77.04
49104;BME280;34915;52.926;11.116;2023-07-30T03:43:47;100635.31;;;16.29;77.33
49104;BME280;34915;52.926;11.116;2023-07-30T03:46:13;100636.16;;;16.26;77.44
49104;BME280;34915;52.926;11.116;2023-07-30T03:48:38;100637.41;;;16.22;76.83
49104;BME280;34915;52.926;11.116;2023-07-30T03:51:04;100631.44;;;16.23;76.93
49104;BME280;34915;52.926;11.116;2023-07-30T03:53:29;100635.84;;;16.21;76.82
49104;BME280;34915;52.926;11.116;2023-07-30T03:55:57;100641.25;;;16.28;76.53
49104;BME280;34915;52.926;11.116;2023-07-30T03:58:24;100642.09;;;16.25;76.49
49104;BME280;34915;52.926;11.116;2023-07-30T04:00:49;100643.31;;;16.24;76.60
49104;BME280;34915;52.926;11.116;2023-07-30T04:03:15;100636.94;;;16.27;76.16
49104;BME280;34915;52.926;11.116;2023-07-30T04:05:43;100649.50;;;16.31;76.74
49104;BME280;34915;52.926;11.116;2023-07-30T04:08:08;100643.97;;;16.31;76.01
49104;BME280;34915;52.926;11.116;2023-07-30T04:10:34;100651.44;;;16.34;77.02
49104;BME280;34915;52.926;11.116;2023-07-30T04:13:00;100649.09;;;16.33;76.21
49104;BME280;34915;52.926;11.116;2023-07-30T04:15:25;100651.13;;;16.29;76.48
49104;BME280;34915;52.926;11.116;2023-07-30T04:17:53;100661.06;;;16.26;76.32
49104;BME280;34915;52.926;11.116;2023-07-30T04:20:19;100658.72;;;16.25;77.08
49104;BME280;34915;52.926;11.116;2023-07-30T04:22:44;100656.66;;;16.29;76.80
49104;BME280;34915;52.926;11.116;2023-07-30T04:25:10;100658.53;;;16.35;77.24
49104;BME280;34915;52.926;11.116;2023-07-30T04:27:38;100665.59;;;16.40;76.80
49104;BME280;34915;52.926;11.116;2023-07-30T04:30:07;100669.03;;;16.48;76.61
49104;BME280;34915;52.926;11.116;2023-07-30T04:32:33;100673.78;;;16.47;76.31
49104;BME280;34915;52.926;11.116;2023-07-30T04:34:59;100682.47;;;16.49;75.91
49104;BME280;34915;52.926;11.116;2023-07-30T04:37:24;100679.69;;;16.49;76.52
49104;BME280;34915;52.926;11.116;2023-07-30T04:39:50;100680.06;;;16.51;76.28
49104;BME280;34915;52.926;11.116;2023-07-30T04:42:15;100672.47;;;16.55;76.52
49104;BME280;34915;52.926;11.116;2023-07-30T04:44:41;100678.00;;;16.55;76.45
49104;BME280;34915;52.926;11.116;2023-07-30T04:47:07;100673.56;;;16.61;77.25
49104;BME280;34915;52.926;11.116;2023-07-30T04:49:32;100680.22;;;16.40;77.18
49104;BME280;34915;52.926;11.116;2023-07-30T04:51:58;100690.59;;;16.36;77.47
49104;BME280;34915;52.926;11.116;2023-07-30T04:54:24;100681.03;;;16.64;77.06
49104;BME280;34915;52.926;11.116;2023-07-30T04:56:49;100689.38;;;16.37;77.86
49104;BME280;34915;52.926;11.116;2023-07-30T04:59:15;100679.81;;;16.42;77.78
49104;BME280;34915;52.926;11.116;2023-07-30T05:01:40;100688.44;;;16.48;77.57
49104;BME280;34915;52.926;11.116;2023-07-30T05:04:06;100687.94;;;16.53;77.72
49104;BME280;34915;52.926;11.116;2023-07-30T05:06:32;100684.28;;;16.59;77.50
49104;BME280;34915;52.926;11.116;2023-07-30T05:08:58;100677.47;;;16.64;77.16
49104;BME280;34915;52.926;11.116;2023-07-30T05:11:23;100683.00;;;16.67;77.96
49104;BME280;34915;52.926;11.116;2023-07-30T05:13:49;100677.53;;;16.87;76.96
49104;BME280;34915;52.926;11.116;2023-07-30T05:16:15;100682.03;;;17.01;76.49
49104;BME280;34915;52.926;11.116;2023-07-30T05:18:40;100686.69;;;17.07;76.51
49104;BME280;34915;52.926;11.116;2023-07-30T05:21:06;100677.88;;;17.13;76.97
49104;BME280;34915;52.926;11.116;2023-07-30T05:23:31;100682.50;;;17.19;76.21
49104;BME280;34915;52.926;11.116;2023-07-30T05:25:57;100688.34;;;17.25;76.38
49104;BME280;34915;52.926;11.116;2023-07-30T05:28:22;100687.47;;;17.28;76.05
49104;BME280;34915;52.926;11.116;2023-07-30T05:30:48;100685.78;;;17.34;75.70
49104;BME280;34915;52.926;11.116;2023-07-30T05:33:13;100693.56;;;17.43;76.32
49104;BME280;34915;52.926;11.116;2023-07-30T05:35:39;100694.91;;;17.54;74.83
49104;BME280;34915;52.926;11.116;2023-07-30T05:38:04;100695.69;;;17.55;75.20
49104;BME280;34915;52.926;11.116;2023-07-30T05:40:30;100701.00;;;17.69;74.96
49104;BME280;34915;52.926;11.116;2023-07-30T05:42:55;100684.63;;;17.75;74.80
49104;BME280;34915;52.926;11.116;2023-07-30T05:45:21;100686.69;;;17.70;74.35
49104;BME280;34915;52.926;11.116;2023-07-30T05:47:46;100684.63;;;17.75;74.08
49104;BME280;34915;52.926;11.116;2023-07-30T05:50:12;100693.66;;;17.79;74.11
49104;BME280;34915;52.926;11.116;2023-07-30T05:52:38;100688.66;;;17.90;74.09
49104;BME280;34915;52.926;11.116;2023-07-30T05:55:03;100684.63;;;17.94;73.79
49104;BME280;34915;52.926;11.116;2023-07-30T05:57:30;100694.44;;;17.99;73.77
49104;BME280;34915;52.926;11.116;2023-07-30T05:59:55;100697.88;;;18.23;73.36
49104;BME280;34915;52.926;11.116;2023-07-30T06:02:21;100689.44;;;18.10;73.65
49104;BME280;34915;52.926;11.116;2023-07-30T06:04:46;100693.88;;;18.24;73.10
49104;BME280;34915;52.926;11.116;2023-07-30T06:07:12;100693.38;;;18.29;73.18
49104;BME280;34915;52.926;11.116;2023-07-30T06:09:37;100698.75;;;18.36;72.78
49104;BME280;34915;52.926;11.116;2023-07-30T06:12:03;100689.56;;;18.39;72.69
49104;BME280;34915;52.926;11.116;2023-07-30T06:14:29;100692.22;;;18.62;72.03
49104;BME280;34915;52.926;11.116;2023-07-30T06:16:54;100686.81;;;18.88;72.10
49104;BME280;34915;52.926;11.116;2023-07-30T06:19:20;100689.41;;;18.95;71.91
49104;BME280;34915;52.926;11.116;2023-07-30T06:21:46;100687.91;;;19.07;71.79
49104;BME280;34915;52.926;11.116;2023-07-30T06:24:11;100688.28;;;19.09;71.51
49104;BME280;34915;52.926;11.116;2023-07-30T06:26:39;100686.00;;;19.20;70.64
49104;BME280;34915;52.926;11.116;2023-07-30T06:29:05;100694.34;;;19.20;71.25
49104;BME280;34915;52.926;11.116;2023-07-30T06:31:31;100690.25;;;19.24;71.44
49104;BME280;34915;52.926;11.116;2023-07-30T06:33:56;100689.03;;;19.25;71.08
49104;BME280;34915;52.926;11.116;2023-07-30T06:36:22;100696.25;;;19.23;69.87
49104;BME280;34915;52.926;11.116;2023-07-30T06:38:47;100695.28;;;19.30;70.12
49104;BME280;34915;52.926;11.116;2023-07-30T06:41:13;100701.44;;;19.37;70.14
49104;BME280;34915;52.926;11.116;2023-07-30T06:43:39;100696.66;;;19.38;70.08
49104;BME280;34915;52.926;11.116;2023-07-30T06:46:05;100696.06;;;19.30;68.98
49104;BME280;34915;52.926;11.116;2023-07-30T06:48:30;100694.53;;;19.42;69.32
49104;BME280;34915;52.926;11.116;2023-07-30T06:50:56;100696.63;;;19.54;68.83
49104;BME280;34915;52.926;11.116;2023-07-30T06:53:24;100700.25;;;19.51;70.36
49104;BME280;34915;52.926;11.116;2023-07-30T06:55:50;100704.09;;;19.57;69.45
49104;BME280;34915;52.926;11.116;2023-07-30T06:58:15;100703.03;;;19.51;69.20
49104;BME280;34915;52.926;11.116;2023-07-30T07:00:41;100697.53;;;19.35;69.43
49104;BME280;34915;52.926;11.116;2023-07-30T07:03:07;100708.66;;;19.35;68.49
49104;BME280;34915;52.926;11.116;2023-07-30T07:05:32;100707.44;;;19.36;67.44
49104;BME280;34915;52.926;11.116;2023-07-30T07:07:58;100698.88;;;19.43;67.38
49104;BME280;34915;52.926;11.116;2023-07-30T07:10:23;100704.41;;;19.30;66.34
49104;BME280;34915;52.926;11.116;2023-07-30T07:12:49;100700.66;;;19.37;66.59
49104;BME280;34915;52.926;11.116;2023-07-30T07:15:15;100715.06;;;19.48;66.37
49104;BME280;34915;52.926;11.116;2023-07-30T07:17:40;100714.94;;;19.51;65.39
49104;BME280;34915;52.926;11.116;2023-07-30T07:20:06;100710.78;;;19.59;65.52
49104;BME280;34915;52.926;11.116;2023-07-30T07:22:33;100710.09;;;19.84;65.47
49104;BME280;34915;52.926;11.116;2023-07-30T07:25:00;100714.19;;;19.80;65.30
49104;BME280;34915;52.926;11.116;2023-07-30T07:27:26;100716.00;;;19.86;64.41
49104;BME280;34915;52.926;11.116;2023-07-30T07:29:52;100713.56;;;20.01;65.56
49104;BME280;34915;52.926;11.116;2023-07-30T07:32:18;100716.34;;;20.01;64.79
49104;BME280;34915;52.926;11.116;2023-07-30T07:34:47;100718.03;;;20.11;64.14
49104;BME280;34915;52.926;11.116;2023-07-30T07:37:14;100725.16;;;20.12;62.77
49104;BME280;34915;52.926;11.116;2023-07-30T07:39:44;100719.59;;;20.12;62.72
49104;BME280;34915;52.926;11.116;2023-07-30T07:42:12;100717.41;;;20.33;62.61
49104;BME280;34915;52.926;11.116;2023-07-30T07:44:37;100715.19;;;20.53;62.64
49104;BME280;34915;52.926;11.116;2023-07-30T07:47:03;100714.88;;;20.51;62.25
49104;BME280;34915;52.926;11.116;2023-07-30T07:49:29;100713.84;;;20.58;62.28
49104;BME280;34915;52.926;11.116;2023-07-30T07:51:55;100719.09;;;20.56;62.42
49104;BME280;34915;52.926;11.116;2023-07-30T07:54:21;100709.72;;;20.62;61.29
49104;BME280;34915;52.926;11.116;2023-07-30T07:56:47;100724.88;;;20.61;61.29
49104;BME280;34915;52.926;11.116;2023-07-30T07:59:12;100724.09;;;20.61;59.46
49104;BME280;34915;52.926;11.116;2023-07-30T08:01:38;100714.53;;;20.62;59.22
49104;BME280;34915;52.926;11.116;2023-07-30T08:04:03;100721.66;;;20.63;59.18
49104;BME280;34915;52.926;11.116;2023-07-30T08:06:31;100729.25;;;20.62;58.26
49104;BME280;34915;52.926;11.116;2023-07-30T08:08:57;100719.09;;;20.68;58.72
49104;BME280;34915;52.926;11.116;2023-07-30T08:11:22;100722.09;;;20.87;58.02
49104;BME280;34915;52.926;11.116;2023-07-30T08:13:48;100719.94;;;21.03;59.03
49104;BME280;34915;52.926;11.116;2023-07-30T08:16:14;100713.91;;;21.05;57.37
49104;BME280;34915;52.926;11.116;2023-07-30T08:18:39;100714.34;;;21.03;57.39
49104;BME280;34915;52.926;11.116;2023-07-30T08:21:07;100709.31;;;21.11;58.11
49104;BME280;34915;52.926;11.116;2023-07-30T08:23:32;100713.72;;;21.34;57.80
49104;BME280;34915;52.926;11.116;2023-07-30T08:25:58;100714.13;;;21.45;56.53
49104;BME280;34915;52.926;11.116;2023-07-30T08:28:23;100719.97;;;21.60;56.19
49104;BME280;34915;52.926;11.116;2023-07-30T08:30:49;100711.28;;;21.58;55.58
49104;BME280;34915;52.926;11.116;2023-07-30T08:33:14;100716.59;;;21.65;55.25
49104;BME280;34915;52.926;11.116;2023-07-30T08:35:40;100718.63;;;21.64;54.43
49104;BME280;34915;52.926;11.116;2023-07-30T08:38:06;100715.56;;;21.50;54.22
49104;BME280;34915;52.926;11.116;2023-07-30T08:40:31;100717.44;;;21.53;55.47
49104;BME280;34915;52.926;11.116;2023-07-30T08:42:57;100706.00;;;21.82;55.23
49104;BME280;34915;52.926;11.116;2023-07-30T08:45:23;100707.25;;;22.02;55.47
49104;BME280;34915;52.926;11.116;2023-07-30T08:47:48;100716.59;;;21.87;55.39
49104;BME280;34915;52.926;11.116;2023-07-30T08:50:14;100706.19;;;21.87;54.21
49104;BME280;34915;52.926;11.116;2023-07-30T08:52:40;100707.38;;;21.99;54.72
49104;BME280;34915;52.926;11.116;2023-07-30T08:55:06;100707.84;;;22.28;55.10
49104;BME280;34915;52.926;11.116;2023-07-30T08:57:33;100718.22;;;22.19;52.46
49104;BME280;34915;52.926;11.116;2023-07-30T09:00:11;100713.53;;;22.16;53.65
49104;BME280;34915;52.926;11.116;2023-07-30T09:02:52;100705.47;;;21.96;51.44
49104;BME280;34915;52.926;11.116;2023-07-30T09:05:20;100711.53;;;22.16;51.94
49104;BME280;34915;52.926;11.116;2023-07-30T09:07:46;100710.81;;;22.34;52.70
49104;BME280;34915;52.926;11.116;2023-07-30T09:10:12;100703.34;;;22.31;51.39
49104;BME280;34915;52.926;11.116;2023-07-30T09:12:39;100705.91;;;22.47;51.91
49104;BME280;34915;52.926;11.116;2023-07-30T09:15:06;100707.00;;;22.50;51.12
49104;BME280;34915;52.926;11.116;2023-07-30T09:17:33;100701.69;;;22.42;49.69
49104;BME280;34915;52.926;11.116;2023-07-30T09:19:59;100713.25;;;22.23;49.30
49104;BME280;34915;52.926;11.116;2023-07-30T09:22:26;100716.28;;;22.37;50.46
49104;BME280;34915;52.926;11.116;2023-07-30T09:24:55;100716.22;;;22.28;50.47
49104;BME280;34915;52.926;11.116;2023-07-30T09:27:23;100717.25;;;22.13;50.14
49104;BME280;34915;52.926;11.116;2023-07-30T09:29:54;100715.63;;;22.33;51.65
49104;BME280;34915;52.926;11.116;2023-07-30T09:32:24;100720.41;;;22.24;50.63
49104;BME280;34915;52.926;11.116;2023-07-30T09:34:50;100719.81;;;22.29;50.88
49104;BME280;34915;52.926;11.116;2023-07-30T09:37:16;100710.34;;;22.35;49.66
49104;BME280;34915;52.926;11.116;2023-07-30T09:39:42;100715.19;;;22.35;49.45
49104;BME280;34915;52.926;11.116;2023-07-30T09:42:08;100710.09;;;22.52;49.41
49104;BME280;34915;52.926;11.116;2023-07-30T09:44:33;100707.31;;;22.52;49.11
49104;BME280;34915;52.926;11.116;2023-07-30T09:47:00;100707.69;;;22.63;49.40
49104;BME280;34915;52.926;11.116;2023-07-30T09:49:30;100701.19;;;22.75;49.29
49104;BME280;34915;52.926;11.116;2023-07-30T09:51:57;100698.66;;;22.59;48.84
49104;BME280;34915;52.926;11.116;2023-07-30T09:54:23;100702.56;;;22.70;50.55
49104;BME280;34915;52.926;11.116;2023-07-30T09:56:48;100701.00;;;22.69;48.96
49104;BME280;34915;52.926;11.116;2023-07-30T09:59:14;100702.69;;;22.58;50.58
49104;BME280;34915;52.926;11.116;2023-07-30T10:01:46;100703.47;;;22.58;50.70
49104;BME280;34915;52.926;11.116;2023-07-30T10:04:12;100693.25;;;22.73;54.04
49104;BME280;34915;52.926;11.116;2023-07-30T10:06:42;100704.75;;;22.66;50.14
49104;BME280;34915;52.926;11.116;2023-07-30T10:09:12;100708.16;;;22.61;49.37
49104;BME280;34915;52.926;11.116;2023-07-30T10:11:39;100710.66;;;22.68;50.69
49104;BME280;34915;52.926;11.116;2023-07-30T10:14:06;100711.44;;;22.78;48.10
49104;BME280;34915;52.926;11.116;2023-07-30T10:16:32;100713.00;;;22.79;48.51
49104;BME280;34915;52.926;11.116;2023-07-30T10:18:58;100714.59;;;22.80;47.52
49104;BME280;34915;52.926;11.116;2023-07-30T10:21:26;100716.78;;;22.94;48.03
49104;BME280;34915;52.926;11.116;2023-07-30T10:24:03;100723.56;;;22.75;48.11
49104;BME280;34915;52.926;11.116;2023-07-30T10:26:33;100729.47;;;22.77;48.98
49104;BME280;34915;52.926;11.116;2023-07-30T10:29:19;100722.63;;;22.69;47.84
49104;BME280;34915;52.926;11.116;2023-07-30T10:31:55;100726.81;;;22.73;46.52
49104;BME280;34915;52.926;11.116;2023-07-30T10:34:22;100733.81;;;22.78;46.29
49104;BME280;34915;52.926;11.116;2023-07-30T10:36:51;100728.59;;;22.89;46.36
49104;BME280;34915;52.926;11.116;2023-07-30T10:39:19;100724.72;;;22.96;46.22
49104;BME280;34915;52.926;11.116;2023-07-30T10:41:55;100728.28;;;22.96;47.33
49104;BME280;34915;52.926;11.116;2023-07-30T10:46:53;100730.03;;;23.03;45.51
49104;BME280;34915;52.926;11.116;2023-07-30T10:49:18;100734.41;;;23.22;49.42
49104;BME280;34915;52.926;11.116;2023-07-30T10:51:44;100725.34;;;23.00;46.24
49104;BME280;34915;52.926;11.116;2023-07-30T10:54:10;100729.38;;;22.99;46.46
49104;BME280;34915;52.926;11.116;2023-07-30T10:56:36;100729.56;;;23.04;47.24
49104;BME280;34915;52.926;11.116;2023-07-30T10:59:12;100727.38;;;22.99;45.82
49104;BME280;34915;52.926;11.116;2023-07-30T11:04:14;100737.69;;;22.71;47.12
49104;BME280;34915;52.926;11.116;2023-07-30T11:06:48;100732.31;;;22.86;47.06
49104;BME280;34915;52.926;11.116;2023-07-30T11:09:19;100737.31;;;22.91;47.44
49104;BME280;34915;52.926;11.116;2023-07-30T11:11:46;100731.63;;;22.64;45.57
49104;BME280;34915;52.926;11.116;2023-07-30T11:14:19;100743.91;;;22.66;46.83
49104;BME280;34915;52.926;11.116;2023-07-30T11:16:53;100744.38;;;22.65;46.31
49104;BME280;34915;52.926;11.116;2023-07-30T11:19:20;100735.81;;;22.68;45.36
49104;BME280;34915;52.926;11.116;2023-07-30T11:21:51;100735.03;;;22.68;45.85
49104;BME280;34915;52.926;11.116;2023-07-30T11:24:17;100730.25;;;22.78;46.28
49104;BME280;34915;52.926;11.116;2023-07-30T11:26:43;100739.63;;;22.84;45.91
49104;BME280;34915;52.926;11.116;2023-07-30T11:29:19;100736.22;;;22.98;46.68
49104;BME280;34915;52.926;11.116;2023-07-30T11:31:46;100737.91;;;22.86;45.76
49104;BME280;34915;52.926;11.116;2023-07-30T11:34:13;100735.13;;;22.95;46.78
49104;BME280;34915;52.926;11.116;2023-07-30T11:36:39;100731.25;;;22.93;47.08
49104;BME280;34915;52.926;11.116;2023-07-30T11:39:06;100732.19;;;22.90;45.92
49104;BME280;34915;52.926;11.116;2023-07-30T11:41:32;100728.91;;;22.91;46.03
49104;BME280;34915;52.926;11.116;2023-07-30T11:43:58;100727.81;;;22.89;46.09
49104;BME280;34915;52.926;11.116;2023-07-30T11:46:24;100724.38;;;22.85;45.58
49104;BME280;34915;52.926;11.116;2023-07-30T11:48:53;100722.75;;;23.15;47.32
49104;BME280;34915;52.926;11.116;2023-07-30T11:51:26;100723.47;;;22.97;46.07
49104;BME280;34915;52.926;11.116;2023-07-30T11:56:26;100725.97;;;22.95;45.08
49104;BME280;34915;52.926;11.116;2023-07-30T11:59:06;100717.09;;;22.96;45.74
49104;BME280;34915;52.926;11.116;2023-07-30T12:01:34;100711.03;;;22.89;46.14
49104;BME280;34915;52.926;11.116;2023-07-30T12:04:02;100712.75;;;22.95;47.04
49104;BME280;34915;52.926;11.116;2023-07-30T12:09:22;100726.13;;;22.91;47.91
49104;BME280;34915;52.926;11.116;2023-07-30T12:11:52;100716.72;;;22.67;47.14
49104;BME280;34915;52.926;11.116;2023-07-30T12:14:18;100716.09;;;22.72;46.71
49104;BME280;34915;52.926;11.116;2023-07-30T12:16:45;100716.31;;;22.87;47.17
49104;BME280;34915;52.926;11.116;2023-07-30T12:19:10;100716.94;;;23.00;47.98
49104;BME280;34915;52.926;11.116;2023-07-30T12:21:36;100711.66;;;22.93;45.86
49104;BME280;34915;52.926;11.116;2023-07-30T12:24:02;100717.72;;;23.00;47.66
49104;BME280;34915;52.926;11.116;2023-07-30T12:26:28;100707.75;;;22.90;47.57
49104;BME280;34915;52.926;11.116;2023-07-30T12:28:54;100708.22;;;22.89;46.95
49104;BME280;34915;52.926;11.116;2023-07-30T12:31:20;100708.00;;;22.65;47.02
49104;BME280;34915;52.926;11.116;2023-07-30T12:33:46;100701.16;;;22.66;47.25
49104;BME280;34915;52.926;11.116;2023-07-30T12:36:11;100706.47;;;22.73;47.19
49104;BME280;34915;52.926;11.116;2023-07-30T12:38:37;100706.19;;;22.80;46.37
49104;BME280;34915;52.926;11.116;2023-07-30T12:41:02;100705.72;;;22.82;47.88
49104;BME280;34915;52.926;11.116;2023-07-30T12:43:28;100705.53;;;22.76;47.88
49104;BME280;34915;52.926;11.116;2023-07-30T12:45:53;100710.44;;;23.12;48.08
49104;BME280;34915;52.926;11.116;2023-07-30T12:48:19;100711.25;;;23.31;48.41
49104;BME280;34915;52.926;11.116;2023-07-30T12:50:45;100710.09;;;23.01;46.81